Time;durP1;ratioP1;P1;durP2;ratioP2;P2;SDS_P1;SDS_P2;PMS_P1;PMS_P2;Temp;Humidity;BMP_temperature;BMP_pressure;BME280_temperature;BME280_humidity;BME280_pressure;Samples;Min_cycle;Max_cycle;Signal;HPM_P1;HPM_P2
2022/04/30 00:00:12;;;;;;;6.43;3.08;;;11.30;58.90;;;;;;5131308;27;20027;-63
2022/04/30 00:02:41;;;;;;;7.40;3.17;;;11.30;59.00;;;;;;5114672;27;20039;-63
2022/04/30 00:05:07;;;;;;;5.65;2.75;;;11.30;59.10;;;;;;5115751;28;20097;-63
2022/04/30 00:07:33;;;;;;;5.57;2.65;;;11.20;59.10;;;;;;5115312;28;20019;-63
2022/04/30 00:09:59;;;;;;;8.90;3.42;;;11.20;59.20;;;;;;5114994;28;20450;-63
2022/04/30 00:12:25;;;;;;;7.57;2.72;;;11.20;59.30;;;;;;5115993;28;20073;-63
2022/04/30 00:14:51;;;;;;;7.30;2.95;;;11.20;59.40;;;;;;5132658;27;20034;-63
2022/04/30 00:17:17;;;;;;;6.13;2.92;;;11.20;59.50;;;;;;5127143;27;20024;-63
2022/04/30 00:19:43;;;;;;;7.50;3.22;;;11.10;59.50;;;;;;5115062;28;20026;-63
2022/04/30 00:22:09;;;;;;;7.55;3.10;;;11.10;59.60;;;;;;5115407;28;20027;-63
2022/04/30 00:24:41;;;;;;;6.28;3.28;;;11.10;59.70;;;;;;5129326;27;20062;-63
2022/04/30 00:27:06;;;;;;;;;;;11.10;59.80;;;;;;5129549;27;20035;-63
2022/04/30 00:29:33;;;;;;;6.10;2.67;;;11.00;59.70;;;;;;5127668;27;19919;-63
2022/04/30 00:32:02;;;;;;;5.57;2.83;;;10.90;59.80;;;;;;5136174;27;20034;-63
2022/04/30 00:34:29;;;;;;;6.90;3.20;;;10.90;60.00;;;;;;5134404;27;20160;-63
2022/04/30 00:36:56;;;;;;;7.70;3.55;;;10.90;60.00;;;;;;5133678;27;20466;-62
2022/04/30 00:39:21;;;;;;;9.25;3.58;;;10.90;60.20;;;;;;5123106;27;20114;-63
2022/04/30 00:41:48;;;;;;;7.82;3.38;;;10.90;60.20;;;;;;5114113;28;20465;-63
2022/04/30 00:44:18;;;;;;;6.47;2.90;;;10.80;60.30;;;;;;5115458;28;20024;-63
2022/04/30 00:46:44;;;;;;;8.35;3.80;;;10.80;60.40;;;;;;5114586;28;20063;-62
2022/04/30 00:49:11;;;;;;;7.65;3.63;;;10.80;60.40;;;;;;5126598;27;20042;-63
2022/04/30 00:51:39;;;;;;;9.85;3.58;;;10.80;60.60;;;;;;5114713;28;20432;-63
2022/04/30 00:54:06;;;;;;;9.02;3.60;;;10.80;60.70;;;;;;5114409;28;20032;-63
2022/04/30 00:56:38;;;;;;;7.60;3.47;;;10.80;60.70;;;;;;5115085;28;20027;-62
2022/04/30 00:59:06;;;;;;;8.70;3.42;;;10.80;60.80;;;;;;5127902;28;20024;-63
2022/04/30 01:01:35;;;;;;;9.23;3.80;;;10.70;60.80;;;;;;5126439;28;20363;-63
2022/04/30 01:04:29;;;;;;;10.27;4.00;;;10.70;60.90;;;;;;5124772;27;20106;-63
2022/04/30 01:07:08;;;;;;;12.73;4.35;;;10.70;60.90;;;;;;5114732;28;20520;-63
2022/04/30 01:09:38;;;;;;;9.20;4.35;;;10.70;61.10;;;;;;5114703;28;20117;-63
2022/04/30 01:12:09;;;;;;;9.00;4.55;;;10.70;61.10;;;;;;5119957;28;20039;-63
2022/04/30 01:14:36;;;;;;;8.97;3.80;;;10.70;61.20;;;;;;5118201;28;20028;-64
2022/04/30 01:17:05;;;;;;;9.35;4.15;;;10.60;61.20;;;;;;5123372;28;20107;-63
2022/04/30 01:19:33;;;;;;;11.23;4.28;;;10.70;61.40;;;;;;5132874;28;20039;-63
2022/04/30 01:22:01;;;;;;;8.52;4.15;;;10.60;61.30;;;;;;5135245;27;20444;-63
2022/04/30 01:24:28;;;;;;;9.75;4.25;;;10.60;61.40;;;;;;5127101;28;20035;-62
2022/04/30 01:26:55;;;;;;;12.43;5.20;;;10.60;61.50;;;;;;5114512;28;20105;-63
2022/04/30 01:29:23;;;;;;;9.75;4.47;;;10.60;61.60;;;;;;5126047;27;20023;-64
2022/04/30 01:37:25;;;;;;;9.13;4.55;;;10.60;61.70;;;;;;5122908;27;20119;-63
2022/04/30 01:40:00;;;;;;;8.60;4.80;;;10.60;61.70;;;;;;5128345;27;20453;-62
2022/04/30 01:42:31;;;;;;;7.93;4.68;;;10.60;61.90;;;;;;5136831;27;20031;-63
2022/04/30 01:44:58;;;;;;;10.75;4.65;;;10.50;62.00;;;;;;5137217;27;20037;-63
2022/04/30 01:47:24;;;;;;;11.52;4.47;;;10.50;62.00;;;;;;5126368;27;20353;-63
2022/04/30 01:49:50;;;;;;;9.65;4.82;;;10.50;62.10;;;;;;5117068;27;20106;-63
2022/04/30 01:52:16;;;;;;;11.48;4.97;;;10.50;62.20;;;;;;5117697;28;20090;-62
2022/04/30 01:54:43;;;;;;;14.30;4.78;;;10.40;62.20;;;;;;5117206;27;20031;-62
2022/04/30 01:57:09;;;;;;;9.65;4.80;;;10.40;62.30;;;;;;5126757;27;20072;-63
2022/04/30 01:59:35;;;;;;;8.10;4.78;;;10.40;62.40;;;;;;5121460;27;20023;-62
2022/04/30 02:02:06;;;;;;;11.98;5.57;;;10.40;62.40;;;;;;5118182;28;20038;-63
2022/04/30 02:04:32;;;;;;;11.02;4.95;;;10.40;62.50;;;;;;5119328;27;20027;-63
2022/04/30 02:07:00;;;;;;;10.63;4.88;;;10.40;62.50;;;;;;5130513;27;20028;-62
2022/04/30 02:09:28;;;;;;;10.50;5.18;;;10.40;62.60;;;;;;5117364;27;20420;-63
2022/04/30 02:11:58;;;;;;;8.55;4.45;;;10.40;62.60;;;;;;5127328;27;20035;-62
2022/04/30 02:14:31;;;;;;;9.40;4.88;;;10.40;62.70;;;;;;5137992;27;20076;-62
2022/04/30 02:17:01;;;;;;;9.45;5.70;;;10.40;62.70;;;;;;5117542;27;20024;-62
2022/04/30 02:19:28;;;;;;;10.52;5.05;;;10.30;62.80;;;;;;5117707;27;20023;-63
2022/04/30 02:21:58;;;;;;;10.27;5.15;;;10.30;62.80;;;;;;5117434;27;20027;-62
2022/04/30 02:24:27;;;;;;;11.43;5.15;;;10.30;62.80;;;;;;5129104;27;20031;-62
2022/04/30 02:26:53;;;;;;;9.75;4.82;;;10.30;62.90;;;;;;5117911;27;20352;-63
2022/04/30 02:29:18;;;;;;;11.95;5.88;;;10.30;63.00;;;;;;5125504;27;20027;-63
2022/04/30 02:31:45;;;;;;;11.07;5.80;;;10.20;63.00;;;;;;5117680;27;20038;-63
2022/04/30 02:34:11;;;;;;;9.48;5.00;;;10.20;63.10;;;;;;5117253;28;20023;-63
2022/04/30 02:36:36;;;;;;;10.18;5.07;;;10.10;63.20;;;;;;5116008;27;20026;-63
2022/04/30 02:39:02;;;;;;;10.10;5.20;;;10.10;63.30;;;;;;5115499;27;20035;-63
2022/04/30 02:41:29;;;;;;;11.52;5.68;;;10.10;63.40;;;;;;5132924;27;20432;-63
2022/04/30 02:43:56;;;;;;;10.73;4.78;;;10.10;63.40;;;;;;5124643;27;20032;-63
2022/04/30 02:46:21;;;;;;;12.43;5.10;;;10.10;63.50;;;;;;5125187;27;20035;-63
2022/04/30 02:48:47;;;;;;;11.55;5.57;;;10.10;63.50;;;;;;5116920;28;20088;-63
2022/04/30 02:51:15;;;;;;;16.00;5.82;;;10.10;63.60;;;;;;5116578;27;20425;-63
2022/04/30 02:53:41;;;;;;;8.82;4.72;;;10.10;63.60;;;;;;5116967;27;20115;-62
2022/04/30 02:56:10;;;;;;;10.88;5.13;;;10.10;63.70;;;;;;5122690;27;20030;-62
2022/04/30 03:01:20;;;;;;;10.25;4.70;;;10.10;63.80;;;;;;5122777;27;20019;-62
2022/04/30 03:04:06;;;;;;;11.45;5.95;;;10.10;63.80;;;;;;5121221;27;20043;-63
2022/04/30 03:06:35;;;;;;;11.15;5.35;;;10.00;63.80;;;;;;5115430;27;20031;-63
2022/04/30 03:09:01;;;;;;;10.25;4.78;;;10.00;64.00;;;;;;5116105;27;20052;-62
2022/04/30 03:11:27;;;;;;;10.20;5.43;;;10.00;64.00;;;;;;5115869;28;20444;-62
2022/04/30 03:13:53;;;;;;;12.07;5.40;;;10.00;64.10;;;;;;5116494;28;20031;-63
2022/04/30 03:21:49;;;;;;;9.60;5.25;;;10.00;64.20;;;;;;5124105;27;20079;-63
2022/04/30 03:24:18;;;;;;;12.85;5.80;;;10.00;64.30;;;;;;5136742;27;20099;-63
2022/04/30 03:26:48;;;;;;;11.23;4.90;;;10.00;64.40;;;;;;5124831;27;20055;-63
2022/04/30 03:29:15;;;;;;;11.02;5.50;;;9.90;64.40;;;;;;5129144;27;20035;-63
2022/04/30 03:31:42;;;;;;;10.90;5.20;;;9.90;64.40;;;;;;5126142;27;20051;-63
2022/04/30 03:34:09;;;;;;;11.10;5.32;;;9.90;64.50;;;;;;5116087;28;20153;-62
2022/04/30 03:36:35;;;;;;;11.18;5.35;;;9.90;64.60;;;;;;5115934;27;20441;-63
2022/04/30 03:39:04;;;;;;;8.88;4.78;;;9.80;64.60;;;;;;5115385;27;20064;-64
2022/04/30 03:41:30;;;;;;;10.45;5.45;;;9.80;64.70;;;;;;5118178;27;20054;-63
2022/04/30 03:43:56;;;;;;;8.48;4.45;;;9.80;64.70;;;;;;5123663;27;20039;-62
2022/04/30 03:46:22;;;;;;;9.27;5.18;;;9.80;64.70;;;;;;5131606;27;20035;-63
2022/04/30 03:48:53;;;;;;;10.88;5.15;;;9.80;64.70;;;;;;5133208;27;20850;-63
2022/04/30 03:51:19;;;;;;;9.15;5.15;;;9.80;64.80;;;;;;5118519;27;20027;-63
2022/04/30 03:53:46;;;;;;;10.60;5.32;;;9.80;64.80;;;;;;5135817;27;20528;-63
2022/04/30 03:56:12;;;;;;;11.15;5.25;;;9.80;64.80;;;;;;5130217;27;20015;-63
2022/04/30 03:58:38;;;;;;;9.48;5.25;;;9.80;64.80;;;;;;5123566;27;20509;-62
2022/04/30 04:01:04;;;;;;;9.93;5.32;;;9.70;64.80;;;;;;5128546;27;20028;-62
2022/04/30 04:03:29;;;;;;;9.40;5.03;;;9.70;65.00;;;;;;5126638;27;20447;-62
2022/04/30 04:05:57;;;;;;;9.60;5.18;;;9.70;65.10;;;;;;5122305;27;20501;-62
2022/04/30 04:08:22;;;;;;;12.65;5.68;;;9.70;65.10;;;;;;5114559;27;20414;-62
2022/04/30 04:10:48;;;;;;;12.00;5.68;;;9.70;65.20;;;;;;5119160;27;20027;-62
2022/04/30 04:18:42;;;;;;;8.77;4.50;;;9.60;65.30;;;;;;5128011;27;20031;-62
2022/04/30 04:21:08;;;;;;;10.15;4.90;;;9.70;65.40;;;;;;5126442;27;20035;-62
2022/04/30 04:25:59;;;;;;;12.50;5.13;;;9.60;65.30;;;;;;5127578;27;20031;-62
2022/04/30 04:26:21;;;;;;;8.30;4.80;;;9.60;65.40;;;;;;5124722;27;20492;-61
2022/04/30 04:28:46;;;;;;;11.15;4.93;;;9.60;65.40;;;;;;5123869;27;20036;-62
2022/04/30 04:31:12;;;;;;;10.05;5.72;;;9.60;65.40;;;;;;5114851;28;20104;-62
2022/04/30 04:33:38;;;;;;;10.13;4.53;;;9.60;65.40;;;;;;5114762;28;20023;-62
2022/04/30 04:36:04;;;;;;;10.80;4.95;;;9.60;65.50;;;;;;5114618;27;20030;-62
2022/04/30 04:38:31;;;;;;;9.35;5.10;;;9.60;65.50;;;;;;5120125;27;20036;-62
2022/04/30 04:40:56;;;;;;;13.18;5.20;;;9.60;65.50;;;;;;5113919;28;20118;-62
2022/04/30 04:43:22;;;;;;;10.20;4.68;;;9.60;65.50;;;;;;5120540;28;20119;-62
2022/04/30 04:45:48;;;;;;;7.93;4.05;;;9.60;65.50;;;;;;5113799;28;20027;-62
2022/04/30 04:48:14;;;;;;;10.35;4.20;;;9.60;65.50;;;;;;5126138;28;20136;-61
2022/04/30 04:50:41;;;;;;;10.23;4.95;;;9.60;66.10;;;;;;5135100;27;20042;-61
2022/04/30 04:53:06;;;;;;;9.05;5.07;;;9.60;65.40;;;;;;5123733;27;20028;-62
2022/04/30 04:55:32;;;;;;;9.43;4.68;;;9.60;65.40;;;;;;5113727;28;20043;-62
2022/04/30 04:57:58;;;;;;;7.70;4.47;;;9.60;65.40;;;;;;5125899;28;20444;-62
2022/04/30 05:00:23;;;;;;;10.10;5.05;;;9.60;65.30;;;;;;5128407;28;20444;-63
2022/04/30 05:02:49;;;;;;;8.65;5.13;;;9.60;66.00;;;;;;5125168;27;20019;-65
2022/04/30 05:05:15;;;;;;;10.73;5.00;;;9.70;65.40;;;;;;5137479;27;20030;-64
2022/04/30 05:07:40;;;;;;;9.48;5.20;;;9.70;65.30;;;;;;5122574;27;20115;-63
2022/04/30 05:10:06;;;;;;;10.65;5.00;;;9.70;65.30;;;;;;5132352;27;20106;-64
2022/04/30 05:12:32;;;;;;;9.13;4.90;;;9.70;65.30;;;;;;5107964;27;20035;-62
2022/04/30 05:14:57;;;;;;;10.75;5.13;;;9.80;65.40;;;;;;5123939;27;20449;-62
2022/04/30 05:17:23;;;;;;;9.88;5.18;;;9.80;65.30;;;;;;5123716;27;20023;-63
2022/04/30 05:19:48;;;;;;;9.63;4.78;;;9.90;65.20;;;;;;5131843;27;20106;-62
2022/04/30 05:22:14;;;;;;;8.77;4.95;;;10.00;65.30;;;;;;5135634;27;20031;-62
2022/04/30 05:24:40;;;;;;;10.00;4.93;;;10.10;65.10;;;;;;5135312;27;20056;-63
2022/04/30 05:27:08;;;;;;;10.52;5.30;;;10.20;65.10;;;;;;5132792;27;20038;-62
2022/04/30 05:29:34;;;;;;;8.90;5.05;;;10.20;64.90;;;;;;5128139;27;20062;-63
2022/04/30 05:32:00;;;;;;;8.70;4.15;;;10.30;64.90;;;;;;5127136;27;20410;-62
2022/04/30 05:34:27;;;;;;;10.25;4.55;;;10.40;64.80;;;;;;5124747;27;20065;-62
2022/04/30 05:36:53;;;;;;;8.95;4.30;;;10.50;64.70;;;;;;5124334;27;20462;-62
2022/04/30 05:39:19;;;;;;;9.30;4.70;;;10.60;64.60;;;;;;5126171;27;20039;-62
2022/04/30 05:41:46;;;;;;;9.02;4.05;;;10.60;64.50;;;;;;5123924;27;20054;-62
2022/04/30 05:44:12;;;;;;;10.40;4.68;;;10.80;64.40;;;;;;5117638;27;20031;-62
2022/04/30 05:46:38;;;;;;;7.07;4.00;;;10.90;64.30;;;;;;5121983;27;20020;-61
2022/04/30 05:49:03;;;;;;;8.40;4.00;;;10.90;64.10;;;;;;5121385;27;20480;-61
2022/04/30 05:51:29;;;;;;;9.05;4.63;;;11.00;63.90;;;;;;5121288;27;20019;-61
2022/04/30 05:53:55;;;;;;;7.43;3.70;;;11.20;63.70;;;;;;5118952;27;20024;-62
2022/04/30 05:56:20;;;;;;;7.65;4.05;;;11.40;63.20;;;;;;5099386;28;20036;-62
2022/04/30 05:58:46;;;;;;;8.95;3.70;;;11.60;62.90;;;;;;5087820;28;20444;-62
2022/04/30 06:01:12;;;;;;;7.78;3.58;;;11.80;62.60;;;;;;5120723;27;20043;-61
2022/04/30 06:03:39;;;;;;;8.30;3.50;;;11.90;62.20;;;;;;5119693;27;20108;-62
2022/04/30 06:06:05;;;;;;;7.50;3.35;;;12.00;62.10;;;;;;5126177;27;20032;-63
2022/04/30 06:08:31;;;;;;;7.75;3.58;;;12.10;62.00;;;;;;5116093;27;20408;-63
2022/04/30 06:10:57;;;;;;;8.25;3.60;;;12.10;61.90;;;;;;5118083;27;20023;-63
2022/04/30 06:13:23;;;;;;;10.35;3.80;;;12.20;61.70;;;;;;5123337;27;20390;-64
2022/04/30 06:15:49;;;;;;;8.27;3.33;;;12.30;61.60;;;;;;5120397;27;20023;-63
2022/04/30 06:18:17;;;;;;;7.93;3.60;;;12.40;61.40;;;;;;5121426;27;20362;-63
2022/04/30 06:20:43;;;;;;;8.43;3.47;;;12.60;61.20;;;;;;5120425;27;20358;-64
2022/04/30 06:23:09;;;;;;;6.15;3.20;;;12.70;60.90;;;;;;5127484;27;20031;-63
2022/04/30 06:25:35;;;;;;;6.97;3.50;;;12.70;60.70;;;;;;5117146;27;20027;-64
2022/04/30 06:28:01;;;;;;;7.32;3.40;;;12.80;60.50;;;;;;5121305;27;20038;-64
2022/04/30 06:30:27;;;;;;;7.97;3.60;;;12.90;60.40;;;;;;5117073;27;20055;-64
2022/04/30 06:32:53;;;;;;;7.63;3.50;;;13.00;60.20;;;;;;5128758;27;20106;-63
2022/04/30 06:35:19;;;;;;;8.57;4.25;;;13.10;60.00;;;;;;5117530;27;20325;-63
2022/04/30 06:37:44;;;;;;;7.75;3.33;;;13.20;59.80;;;;;;5118847;27;20068;-63
2022/04/30 06:40:12;;;;;;;6.53;3.47;;;13.30;59.70;;;;;;5129280;27;20083;-63
2022/04/30 06:42:40;;;;;;;7.80;3.63;;;13.30;59.50;;;;;;5118732;27;20098;-63
2022/04/30 06:45:06;;;;;;;6.82;3.20;;;13.50;59.30;;;;;;5115368;27;20344;-62
2022/04/30 06:47:32;;;;;;;7.82;3.40;;;13.70;58.90;;;;;;5114291;27;20046;-64
2022/04/30 06:49:58;;;;;;;8.95;3.05;;;14.00;58.40;;;;;;5126751;27;20032;-63
2022/04/30 06:52:23;;;;;;;8.73;3.65;;;14.30;58.40;;;;;;5134059;27;20110;-63
2022/04/30 06:57:33;;;;;;;7.15;2.97;;;14.80;56.70;;;;;;5120668;27;20364;-63
2022/04/30 06:59:59;;;;;;;7.88;3.42;;;15.20;56.10;;;;;;5119467;27;20114;-64
2022/04/30 07:02:29;;;;;;;7.90;3.17;;;15.40;55.70;;;;;;5132017;27;20038;-64
2022/04/30 07:04:55;;;;;;;6.40;2.88;;;15.60;55.20;;;;;;5129063;27;20133;-65
2022/04/30 07:07:21;;;;;;;6.57;2.95;;;15.90;54.80;;;;;;5135054;27;20112;-65
2022/04/30 07:09:47;;;;;;;5.53;2.67;;;16.20;54.30;;;;;;5125657;27;20034;-66
2022/04/30 07:12:14;;;;;;;6.15;2.60;;;16.30;53.80;;;;;;5118284;27;20689;-64
2022/04/30 07:14:41;;;;;;;6.50;2.80;;;16.40;53.40;;;;;;5128492;27;20024;-65
2022/04/30 07:17:09;;;;;;;5.20;2.55;;;16.50;53.30;;;;;;5124099;27;20027;-65
2022/04/30 07:19:36;;;;;;;7.32;3.10;;;16.40;53.20;;;;;;5129857;27;20062;-64
2022/04/30 07:22:02;;;;;;;5.38;3.05;;;16.40;53.20;;;;;;5124267;27;20093;-65
2022/04/30 07:24:28;;;;;;;7.60;2.80;;;16.30;53.20;;;;;;5116112;27;20034;-64
2022/04/30 07:26:54;;;;;;;6.72;2.95;;;16.30;53.10;;;;;;5115140;28;20106;-64
2022/04/30 07:29:20;;;;;;;8.00;3.05;;;16.30;53.00;;;;;;5117949;27;20034;-65
2022/04/30 07:31:45;;;;;;;8.65;2.80;;;16.30;52.90;;;;;;5120255;27;20058;-64
2022/04/30 07:34:12;;;;;;;5.57;2.58;;;16.30;53.30;;;;;;5122833;27;20447;-64
2022/04/30 07:36:38;;;;;;;5.57;2.53;;;16.50;52.50;;;;;;5117635;27;20062;-63
2022/04/30 07:39:04;;;;;;;5.63;2.50;;;16.80;52.00;;;;;;5116124;27;20055;-64
2022/04/30 07:41:30;;;;;;;5.38;2.50;;;17.00;51.30;;;;;;5119032;27;20024;-64
2022/04/30 07:43:56;;;;;;;5.50;2.58;;;17.30;50.70;;;;;;5113993;28;20031;-67
2022/04/30 07:46:24;;;;;;;6.10;2.75;;;17.50;50.20;;;;;;5118915;27;20049;-64
2022/04/30 07:48:51;;;;;;;5.88;2.50;;;17.50;49.80;;;;;;5120136;27;20038;-64
2022/04/30 07:51:19;;;;;;;6.32;2.97;;;17.50;49.70;;;;;;5124071;27;20027;-65
2022/04/30 07:53:45;;;;;;;8.93;3.03;;;17.60;49.50;;;;;;5129715;27;20463;-65
2022/04/30 07:56:11;;;;;;;5.75;2.70;;;17.60;49.20;;;;;;5129477;27;20030;-68
2022/04/30 07:58:37;;;;;;;6.45;2.30;;;17.60;48.90;;;;;;5130678;27;20024;-63
2022/04/30 08:01:03;;;;;;;5.70;2.53;;;17.50;48.60;;;;;;5123760;27;20035;-63
2022/04/30 08:03:29;;;;;;;6.18;2.78;;;17.40;48.50;;;;;;5131988;27;20034;-65
2022/04/30 08:05:55;;;;;;;4.75;2.22;;;17.30;48.70;;;;;;5123253;27;20400;-63
2022/04/30 08:08:20;;;;;;;7.00;2.90;;;17.10;48.80;;;;;;5121715;27;20040;-63
2022/04/30 08:10:46;;;;;;;6.75;2.40;;;16.90;49.10;;;;;;5121622;27;20058;-64
2022/04/30 08:13:12;;;;;;;6.47;3.05;;;16.50;49.50;;;;;;5133956;27;20034;-64
2022/04/30 08:15:43;;;;;;;6.20;3.20;;;16.10;50.00;;;;;;5134687;27;20031;-64
2022/04/30 08:18:12;;;;;;;7.68;3.10;;;15.80;50.60;;;;;;5118262;27;20030;-64
2022/04/30 08:20:38;;;;;;;7.97;3.72;;;15.50;51.20;;;;;;5114194;28;20028;-64
2022/04/30 08:23:07;;;;;;;9.75;3.80;;;15.30;51.70;;;;;;5115415;28;20413;-64
2022/04/30 08:25:34;;;;;;;7.82;3.65;;;15.10;52.30;;;;;;5115636;28;20470;-66
2022/04/30 08:28:01;;;;;;;7.38;3.75;;;14.90;52.60;;;;;;5114505;28;20057;-67
2022/04/30 08:30:26;;;;;;;8.07;4.05;;;14.80;52.90;;;;;;5114034;28;20445;-64
2022/04/30 08:32:52;;;;;;;9.48;4.03;;;14.70;53.10;;;;;;5128782;27;20102;-66
2022/04/30 08:35:17;;;;;;;8.23;4.00;;;14.70;53.40;;;;;;5135549;27;20043;-66
2022/04/30 08:37:43;;;;;;;11.13;3.60;;;14.60;53.40;;;;;;5134192;27;20043;-64
2022/04/30 08:40:09;;;;;;;7.38;3.63;;;14.60;53.40;;;;;;5135520;27;20389;-64
2022/04/30 08:42:35;;;;;;;8.32;4.28;;;14.50;53.40;;;;;;5136075;27;20510;-66
2022/04/30 08:45:07;;;;;;;7.10;3.78;;;14.60;53.50;;;;;;5135486;27;20062;-64
2022/04/30 08:47:39;;;;;;;7.60;3.70;;;14.60;53.40;;;;;;5135772;27;20031;-64
2022/04/30 08:50:10;;;;;;;7.55;3.33;;;14.70;53.40;;;;;;5113670;28;20028;-66
2022/04/30 08:52:37;;;;;;;9.02;4.03;;;14.70;53.40;;;;;;5114205;28;20089;-66
2022/04/30 08:55:04;;;;;;;7.40;3.50;;;14.80;53.30;;;;;;5115256;28;20023;-64
2022/04/30 08:57:29;;;;;;;6.78;3.42;;;14.80;53.30;;;;;;5115021;28;20103;-66
2022/04/30 08:59:56;;;;;;;7.18;3.17;;;14.80;53.20;;;;;;5114915;28;20165;-64
2022/04/30 09:02:21;;;;;;;10.30;3.50;;;14.90;53.20;;;;;;5113749;28;20023;-64
2022/04/30 09:04:49;;;;;;;7.18;3.50;;;14.90;53.10;;;;;;5115258;28;20484;-64
2022/04/30 09:07:21;;;;;;;7.35;3.63;;;14.90;53.00;;;;;;5130929;28;20111;-64
2022/04/30 09:09:55;;;;;;;10.82;3.97;;;15.00;52.80;;;;;;5115390;28;20028;-64
2022/04/30 09:12:21;;;;;;;11.13;3.63;;;15.10;52.80;;;;;;5114878;28;20059;-64
2022/04/30 09:14:47;;;;;;;7.18;3.78;;;15.20;52.60;;;;;;5115082;28;20019;-64
2022/04/30 09:17:14;;;;;;;7.40;3.55;;;15.30;52.40;;;;;;5115271;28;20030;-64
2022/04/30 09:19:47;;;;;;;9.30;3.53;;;15.30;52.30;;;;;;5113808;28;20031;-64
2022/04/30 09:22:15;;;;;;;7.25;3.55;;;15.40;52.20;;;;;;5117514;28;20031;-64
2022/04/30 09:24:48;;;;;;;6.40;3.45;;;15.40;52.10;;;;;;5135250;27;20390;-64
2022/04/30 09:27:17;;;;;;;7.43;3.60;;;15.60;51.80;;;;;;5134351;28;20023;-64
2022/04/30 09:29:44;;;;;;;5.88;3.10;;;15.60;51.50;;;;;;5135181;27;20079;-64
2022/04/30 09:32:17;;;;;;;6.38;3.00;;;15.60;51.40;;;;;;5135063;27;20023;-64
2022/04/30 09:37:46;;;;;;;5.97;2.72;;;15.70;51.00;;;;;;5131848;28;20027;-64
2022/04/30 09:40:14;;;;;;;7.03;3.08;;;16.30;50.50;;;;;;5114644;28;20023;-64
2022/04/30 09:42:49;;;;;;;8.25;4.20;;;16.70;49.30;;;;;;5115026;28;20031;-65
2022/04/30 09:45:41;;;;;;;8.80;3.50;;;16.70;48.70;;;;;;5119238;28;20092;-64
2022/04/30 09:53:56;;;;;;;8.23;3.40;;;16.60;49.30;;;;;;5114387;28;20050;-63
2022/04/30 09:53:56;;;;;;;9.70;3.58;;;16.20;49.40;;;;;;5129497;27;20047;-64
2022/04/30 09:56:45;;;;;;;7.57;3.17;;;16.00;50.00;;;;;;5128424;27;20034;-64
2022/04/30 09:59:15;;;;;;;7.45;3.63;;;15.80;50.40;;;;;;5128033;27;20039;-65
2022/04/30 10:01:42;;;;;;;9.60;3.75;;;15.60;50.70;;;;;;5131031;27;20047;-64
2022/04/30 10:04:10;;;;;;;7.68;3.28;;;15.50;51.00;;;;;;5127847;27;20115;-64
2022/04/30 10:06:42;;;;;;;9.32;3.47;;;15.40;51.10;;;;;;5124022;27;20391;-64
2022/04/30 10:09:09;;;;;;;6.55;3.53;;;15.40;51.00;;;;;;5126079;27;20032;-63
2022/04/30 10:11:54;;;;;;;6.82;3.53;;;15.40;51.10;;;;;;5135533;27;20046;-64
2022/04/30 10:15:04;;;;;;;6.93;3.38;;;15.30;50.90;;;;;;5129591;27;20027;-65
2022/04/30 10:17:40;;;;;;;6.75;3.58;;;15.30;50.90;;;;;;5137449;27;20035;-64
2022/04/30 10:20:15;;;;;;;8.55;3.67;;;15.10;51.20;;;;;;5140730;27;20060;-67
2022/04/30 10:22:52;;;;;;;7.78;4.20;;;15.00;51.30;;;;;;5131113;27;20075;-67
2022/04/30 10:25:18;;;;;;;7.55;4.03;;;14.90;51.50;;;;;;5097857;28;20097;-64
2022/04/30 10:27:45;;;;;;;7.47;4.20;;;14.80;51.70;;;;;;5106643;28;20345;-66
2022/04/30 10:30:27;;;;;;;8.85;4.25;;;14.70;51.80;;;;;;5123914;27;20502;-65
2022/04/30 10:33:06;;;;;;;8.27;4.10;;;14.60;51.90;;;;;;5127202;27;20065;-66
2022/04/30 10:35:33;;;;;;;9.98;4.35;;;14.60;52.10;;;;;;5123589;27;20080;-65
2022/04/30 10:38:21;;;;;;;8.80;4.25;;;14.50;52.20;;;;;;5129337;27;20023;-65
2022/04/30 10:40:51;;;;;;;8.15;4.28;;;14.50;52.30;;;;;;5124405;27;20088;-65
2022/04/30 10:43:58;;;;;;;7.55;4.00;;;14.50;52.90;;;;;;5118208;27;20035;-64
2022/04/30 10:46:25;;;;;;;11.05;4.25;;;14.50;52.50;;;;;;5110307;27;20047;-67
2022/04/30 10:48:51;;;;;;;7.82;4.15;;;14.40;52.60;;;;;;5117763;27;20019;-68
2022/04/30 10:51:40;;;;;;;8.63;4.20;;;14.40;52.70;;;;;;5121704;27;20070;-66
2022/04/30 10:54:13;;;;;;;9.20;3.90;;;14.40;52.80;;;;;;5133185;27;20027;-66
2022/04/30 10:56:39;;;;;;;8.00;4.47;;;14.40;52.90;;;;;;5116821;27;20085;-68
2022/04/30 10:59:06;;;;;;;7.70;3.83;;;14.40;52.90;;;;;;5131235;27;20035;-68
2022/04/30 11:01:32;;;;;;;10.75;3.78;;;14.40;52.80;;;;;;5130985;27;20039;-67
2022/04/30 11:04:00;;;;;;;6.45;3.63;;;14.40;52.80;;;;;;5130210;27;20038;-66
2022/04/30 11:06:29;;;;;;;8.77;3.55;;;14.40;52.70;;;;;;5133644;27;20042;-66
2022/04/30 11:09:08;;;;;;;7.70;3.25;;;14.40;52.60;;;;;;5124492;27;20114;-65
2022/04/30 11:11:35;;;;;;;9.10;3.95;;;14.50;52.60;;;;;;5135325;27;20091;-65
2022/04/30 11:14:10;;;;;;;8.48;3.80;;;14.50;52.60;;;;;;5123701;27;20043;-66
2022/04/30 11:16:40;;;;;;;7.50;3.92;;;14.50;52.50;;;;;;5132551;27;20035;-64
2022/04/30 11:19:09;;;;;;;8.15;3.55;;;14.60;52.40;;;;;;5128009;27;20077;-65
2022/04/30 11:21:38;;;;;;;7.72;3.90;;;14.60;52.30;;;;;;5116195;27;20027;-63
2022/04/30 11:24:05;;;;;;;8.60;4.25;;;14.60;52.10;;;;;;5124050;27;20032;-67
2022/04/30 11:26:36;;;;;;;8.50;4.18;;;14.70;52.10;;;;;;5119830;27;20055;-67
2022/04/30 11:29:05;;;;;;;7.35;4.13;;;14.70;52.10;;;;;;5125656;27;20367;-67
2022/04/30 11:31:31;;;;;;;7.20;3.70;;;14.80;52.10;;;;;;5129472;27;20039;-67
2022/04/30 11:34:09;;;;;;;8.43;4.03;;;14.80;51.90;;;;;;5133162;27;20030;-66
2022/04/30 11:36:40;;;;;;;6.63;3.38;;;15.00;51.90;;;;;;5121930;27;20027;-65
2022/04/30 11:39:06;;;;;;;7.60;3.50;;;15.00;51.60;;;;;;5099126;28;20020;-66
2022/04/30 11:41:38;;;;;;;7.10;3.80;;;15.10;51.60;;;;;;5116802;27;20373;-66
2022/04/30 11:44:04;;;;;;;6.82;3.65;;;15.20;51.40;;;;;;5125919;27;20118;-66
2022/04/30 11:46:29;;;;;;;9.00;4.00;;;15.20;51.20;;;;;;5127485;27;20110;-65
2022/04/30 11:48:55;;;;;;;7.68;3.45;;;15.30;51.00;;;;;;5129357;27;20104;-65
2022/04/30 11:51:21;;;;;;;7.38;3.72;;;15.40;50.90;;;;;;5100141;27;20471;-66
2022/04/30 11:53:47;;;;;;;7.93;3.38;;;15.50;50.60;;;;;;5131319;27;20024;-67
2022/04/30 11:56:13;;;;;;;7.10;3.13;;;15.60;50.40;;;;;;5116929;28;20027;-67
2022/04/30 11:58:43;;;;;;;6.60;3.25;;;15.60;50.10;;;;;;5130748;27;20027;-66
2022/04/30 12:01:20;;;;;;;6.57;3.30;;;15.70;49.90;;;;;;5116583;27;20055;-66
2022/04/30 12:03:46;;;;;;;6.85;2.72;;;15.80;49.60;;;;;;5117477;27;20099;-65
2022/04/30 12:06:11;;;;;;;6.97;3.08;;;15.90;49.40;;;;;;5129007;27;20027;-65
2022/04/30 12:08:37;;;;;;;8.27;3.20;;;15.90;49.30;;;;;;5124281;27;20063;-65
2022/04/30 12:11:04;;;;;;;7.97;2.92;;;16.00;49.20;;;;;;5131290;27;20433;-65
2022/04/30 12:13:29;;;;;;;6.65;2.88;;;16.00;49.10;;;;;;5114120;27;20437;-65
2022/04/30 12:16:05;;;;;;;6.40;3.05;;;16.10;49.00;;;;;;5130016;27;20026;-65
2022/04/30 12:27:03;;;;;;;6.57;3.10;;;16.20;48.70;;;;;;5119659;27;20027;-66
2022/04/30 12:29:30;;;;;;;8.18;3.50;;;16.20;48.70;;;;;;5098154;28;20089;-66
2022/04/30 12:31:57;;;;;;;7.55;3.15;;;16.30;48.80;;;;;;5123325;27;20352;-66
2022/04/30 12:34:25;;;;;;;7.22;3.03;;;16.30;48.80;;;;;;5114078;28;20468;-66
2022/04/30 12:36:56;;;;;;;8.77;3.20;;;16.30;48.80;;;;;;5117557;27;20390;-64
2022/04/30 12:39:23;;;;;;;5.95;2.78;;;16.30;48.80;;;;;;5117275;27;20049;-67
2022/04/30 12:41:50;;;;;;;6.80;3.03;;;16.40;48.80;;;;;;5131950;27;20036;-65
2022/04/30 12:44:16;;;;;;;6.78;3.25;;;16.40;48.60;;;;;;5122126;27;20436;-65
2022/04/30 12:46:43;;;;;;;7.80;3.38;;;16.40;48.60;;;;;;5114705;28;20115;-66
2022/04/30 12:49:11;;;;;;;6.65;3.20;;;16.40;48.70;;;;;;5114422;28;20080;-64
2022/04/30 12:51:38;;;;;;;8.40;3.17;;;16.40;48.80;;;;;;5126266;28;20027;-65
2022/04/30 12:54:04;;;;;;;8.30;3.25;;;16.40;48.90;;;;;;5129946;28;20505;-68
2022/04/30 12:56:31;;;;;;;7.63;3.20;;;16.40;48.70;;;;;;5115112;28;20055;-65
2022/04/30 12:58:57;;;;;;;6.38;3.00;;;16.30;48.60;;;;;;5113796;28;20416;-65
2022/04/30 13:01:23;;;;;;;7.28;3.08;;;16.30;48.50;;;;;;5119437;28;20066;-64
2022/04/30 13:03:48;;;;;;;7.93;2.70;;;16.30;48.30;;;;;;5122996;28;20019;-65
2022/04/30 13:06:14;;;;;;;6.82;2.63;;;16.30;48.30;;;;;;5120595;28;20039;-65
2022/04/30 13:14:08;;;;;;;7.50;2.78;;;16.20;47.90;;;;;;5135973;27;20448;-65
2022/04/30 13:16:34;;;;;;;5.53;2.53;;;16.10;47.90;;;;;;5101450;28;20072;-65
2022/04/30 13:19:00;;;;;;;5.93;2.60;;;16.00;47.90;;;;;;5108048;28;20031;-65
2022/04/30 13:21:26;;;;;;;6.03;2.53;;;16.00;47.80;;;;;;5113170;28;20030;-65
2022/04/30 13:23:51;;;;;;;5.70;2.50;;;16.00;47.90;;;;;;5131096;27;20058;-65
2022/04/30 13:26:20;;;;;;;8.98;2.80;;;15.90;47.80;;;;;;5121762;27;20403;-65
2022/04/30 13:28:47;;;;;;;6.65;2.63;;;15.90;47.60;;;;;;5117772;27;20032;-65
2022/04/30 13:31:12;;;;;;;5.82;2.70;;;15.80;47.50;;;;;;5121786;27;20401;-66